sensor_id;sensor_type;location;lat;lon;timestamp;pressure;altitude;pressure_sealevel;temperature
68588;BMP180;55560;52.174;20.996;2022-10-16T00:01:43;100630.40;;;15.10
68588;BMP180;55560;52.174;20.996;2022-10-16T00:04:11;100632.80;;;15.10
68588;BMP180;55560;52.174;20.996;2022-10-16T00:06:39;100632.20;;;15.10
68588;BMP180;55560;52.174;20.996;2022-10-16T00:09:07;100632.00;;;15.10
68588;BMP180;55560;52.174;20.996;2022-10-16T00:11:39;100629.00;;;15.10
68588;BMP180;55560;52.174;20.996;2022-10-16T00:14:11;100630.20;;;15.10
68588;BMP180;55560;52.174;20.996;2022-10-16T00:16:40;100628.00;;;15.10
68588;BMP180;55560;52.174;20.996;2022-10-16T00:19:09;100629.60;;;15.10
68588;BMP180;55560;52.174;20.996;2022-10-16T00:21:37;100627.80;;;15.08
68588;BMP180;55560;52.174;20.996;2022-10-16T00:24:09;100625.80;;;15.00
68588;BMP180;55560;52.174;20.996;2022-10-16T00:26:38;100629.00;;;15.08
68588;BMP180;55560;52.174;20.996;2022-10-16T00:29:07;100630.60;;;15.10
68588;BMP180;55560;52.174;20.996;2022-10-16T00:31:35;100630.00;;;15.10
68588;BMP180;55560;52.174;20.996;2022-10-16T00:34:03;100623.60;;;15.10
68588;BMP180;55560;52.174;20.996;2022-10-16T00:36:31;100626.40;;;15.06
68588;BMP180;55560;52.174;20.996;2022-10-16T00:38:59;100627.00;;;15.08
68588;BMP180;55560;52.174;20.996;2022-10-16T00:41:32;100628.40;;;15.00
68588;BMP180;55560;52.174;20.996;2022-10-16T00:47:41;100631.40;;;15.00
68588;BMP180;55560;52.174;20.996;2022-10-16T00:50:29;100639.00;;;15.00
68588;BMP180;55560;52.174;20.996;2022-10-16T00:52:58;100642.20;;;15.00
68588;BMP180;55560;52.174;20.996;2022-10-16T00:55:28;100645.80;;;15.00
68588;BMP180;55560;52.174;20.996;2022-10-16T00:57:57;100649.00;;;15.00
68588;BMP180;55560;52.174;20.996;2022-10-16T01:00:27;100646.20;;;15.00
68588;BMP180;55560;52.174;20.996;2022-10-16T01:09:31;100653.20;;;15.00
68588;BMP180;55560;52.174;20.996;2022-10-16T01:12:15;100651.60;;;15.00
68588;BMP180;55560;52.174;20.996;2022-10-16T01:14:58;100653.80;;;15.00
68588;BMP180;55560;52.174;20.996;2022-10-16T01:18:08;100652.00;;;15.00
68588;BMP180;55560;52.174;20.996;2022-10-16T01:21:01;100657.80;;;15.00
68588;BMP180;55560;52.174;20.996;2022-10-16T01:26:41;100654.00;;;15.00
68588;BMP180;55560;52.174;20.996;2022-10-16T01:29:50;100655.60;;;15.00
68588;BMP180;55560;52.174;20.996;2022-10-16T01:32:45;100660.40;;;15.00
68588;BMP180;55560;52.174;20.996;2022-10-16T01:38:05;100664.60;;;15.00
68588;BMP180;55560;52.174;20.996;2022-10-16T01:40:45;100666.80;;;15.00
68588;BMP180;55560;52.174;20.996;2022-10-16T01:43:28;100676.00;;;15.00
68588;BMP180;55560;52.174;20.996;2022-10-16T01:45:57;100676.00;;;15.00
68588;BMP180;55560;52.174;20.996;2022-10-16T01:48:25;100678.40;;;15.00
68588;BMP180;55560;52.174;20.996;2022-10-16T01:51:08;100676.00;;;15.00
68588;BMP180;55560;52.174;20.996;2022-10-16T01:53:39;100673.60;;;15.00
68588;BMP180;55560;52.174;20.996;2022-10-16T01:56:11;100671.20;;;15.00
68588;BMP180;55560;52.174;20.996;2022-10-16T01:58:46;100668.60;;;15.00
68588;BMP180;55560;52.174;20.996;2022-10-16T02:01:16;100663.20;;;15.00
68588;BMP180;55560;52.174;20.996;2022-10-16T02:03:46;100658.60;;;15.00
68588;BMP180;55560;52.174;20.996;2022-10-16T02:06:17;100659.60;;;15.00
68588;BMP180;55560;52.174;20.996;2022-10-16T02:08:46;100663.00;;;15.00
68588;BMP180;55560;52.174;20.996;2022-10-16T02:11:14;100665.60;;;15.00
68588;BMP180;55560;52.174;20.996;2022-10-16T02:13:48;100664.40;;;15.00
68588;BMP180;55560;52.174;20.996;2022-10-16T02:16:17;100662.00;;;15.00
68588;BMP180;55560;52.174;20.996;2022-10-16T02:18:48;100663.80;;;14.94
68588;BMP180;55560;52.174;20.996;2022-10-16T02:21:24;100662.20;;;14.90
68588;BMP180;55560;52.174;20.996;2022-10-16T02:24:07;100659.00;;;14.90
68588;BMP180;55560;52.174;20.996;2022-10-16T02:26:45;100658.00;;;14.90
68588;BMP180;55560;52.174;20.996;2022-10-16T02:29:17;100658.80;;;14.90
68588;BMP180;55560;52.174;20.996;2022-10-16T02:31:50;100655.20;;;14.90
68588;BMP180;55560;52.174;20.996;2022-10-16T02:34:21;100658.20;;;14.90
68588;BMP180;55560;52.174;20.996;2022-10-16T02:36:52;100657.80;;;14.90
68588;BMP180;55560;52.174;20.996;2022-10-16T02:39:21;100659.00;;;14.90
68588;BMP180;55560;52.174;20.996;2022-10-16T02:41:49;100663.60;;;14.90
68588;BMP180;55560;52.174;20.996;2022-10-16T02:44:16;100661.60;;;14.90
68588;BMP180;55560;52.174;20.996;2022-10-16T02:46:44;100665.40;;;14.90
68588;BMP180;55560;52.174;20.996;2022-10-16T02:49:12;100665.80;;;14.90
68588;BMP180;55560;52.174;20.996;2022-10-16T02:51:40;100666.80;;;14.84
68588;BMP180;55560;52.174;20.996;2022-10-16T02:54:08;100671.20;;;14.80
68588;BMP180;55560;52.174;20.996;2022-10-16T02:56:38;100674.20;;;14.80
68588;BMP180;55560;52.174;20.996;2022-10-16T02:59:06;100672.80;;;14.80
68588;BMP180;55560;52.174;20.996;2022-10-16T03:01:34;100676.80;;;14.80
68588;BMP180;55560;52.174;20.996;2022-10-16T03:04:03;100677.20;;;14.80
68588;BMP180;55560;52.174;20.996;2022-10-16T03:06:31;100678.40;;;14.80
68588;BMP180;55560;52.174;20.996;2022-10-16T03:08:59;100677.60;;;14.80
68588;BMP180;55560;52.174;20.996;2022-10-16T03:11:27;100682.60;;;14.80
68588;BMP180;55560;52.174;20.996;2022-10-16T03:13:56;100684.20;;;14.80
68588;BMP180;55560;52.174;20.996;2022-10-16T03:16:23;100688.00;;;14.80
68588;BMP180;55560;52.174;20.996;2022-10-16T03:18:51;100691.00;;;14.80
68588;BMP180;55560;52.174;20.996;2022-10-16T03:21:19;100689.40;;;14.80
68588;BMP180;55560;52.174;20.996;2022-10-16T03:23:47;100694.40;;;14.80
68588;BMP180;55560;52.174;20.996;2022-10-16T03:26:15;100693.80;;;14.80
68588;BMP180;55560;52.174;20.996;2022-10-16T03:28:43;100701.60;;;14.76
68588;BMP180;55560;52.174;20.996;2022-10-16T03:31:12;100702.20;;;14.74
68588;BMP180;55560;52.174;20.996;2022-10-16T03:33:40;100702.20;;;14.80
68588;BMP180;55560;52.174;20.996;2022-10-16T03:36:07;100709.00;;;14.80
68588;BMP180;55560;52.174;20.996;2022-10-16T03:38:35;100708.40;;;14.76
68588;BMP180;55560;52.174;20.996;2022-10-16T03:41:03;100706.40;;;14.70
68588;BMP180;55560;52.174;20.996;2022-10-16T03:43:31;100706.00;;;14.70
68588;BMP180;55560;52.174;20.996;2022-10-16T03:45:59;100709.40;;;14.68
68588;BMP180;55560;52.174;20.996;2022-10-16T03:48:29;100709.20;;;14.60
68588;BMP180;55560;52.174;20.996;2022-10-16T03:50:57;100709.60;;;14.60
68588;BMP180;55560;52.174;20.996;2022-10-16T03:53:25;100712.60;;;14.60
68588;BMP180;55560;52.174;20.996;2022-10-16T03:55:53;100716.20;;;14.60
68588;BMP180;55560;52.174;20.996;2022-10-16T03:58:21;100716.20;;;14.60
68588;BMP180;55560;52.174;20.996;2022-10-16T04:00:49;100715.60;;;14.60
68588;BMP180;55560;52.174;20.996;2022-10-16T04:03:17;100710.80;;;14.50
68588;BMP180;55560;52.174;20.996;2022-10-16T04:05:46;100712.00;;;14.50
68588;BMP180;55560;52.174;20.996;2022-10-16T04:08:15;100710.60;;;14.50
68588;BMP180;55560;52.174;20.996;2022-10-16T04:10:43;100718.00;;;14.50
68588;BMP180;55560;52.174;20.996;2022-10-16T04:13:11;100711.80;;;14.48
68588;BMP180;55560;52.174;20.996;2022-10-16T04:15:39;100712.00;;;14.40
68588;BMP180;55560;52.174;20.996;2022-10-16T04:18:07;100711.80;;;14.40
68588;BMP180;55560;52.174;20.996;2022-10-16T04:20:35;100713.60;;;14.40
68588;BMP180;55560;52.174;20.996;2022-10-16T04:23:03;100716.20;;;14.30
68588;BMP180;55560;52.174;20.996;2022-10-16T04:25:31;100720.20;;;14.30
68588;BMP180;55560;52.174;20.996;2022-10-16T04:27:59;100724.80;;;14.30
68588;BMP180;55560;52.174;20.996;2022-10-16T04:30:27;100729.00;;;14.20
68588;BMP180;55560;52.174;20.996;2022-10-16T04:32:55;100725.20;;;14.20
68588;BMP180;55560;52.174;20.996;2022-10-16T04:35:23;100726.00;;;14.20
68588;BMP180;55560;52.174;20.996;2022-10-16T04:37:51;100733.20;;;14.20
68588;BMP180;55560;52.174;20.996;2022-10-16T04:40:19;100728.40;;;14.20
68588;BMP180;55560;52.174;20.996;2022-10-16T04:42:47;100726.00;;;14.26
68588;BMP180;55560;52.174;20.996;2022-10-16T04:45:15;100731.60;;;14.26
68588;BMP180;55560;52.174;20.996;2022-10-16T04:47:44;100730.00;;;14.20
68588;BMP180;55560;52.174;20.996;2022-10-16T04:50:12;100737.60;;;14.20
68588;BMP180;55560;52.174;20.996;2022-10-16T04:52:40;100737.80;;;14.20
68588;BMP180;55560;52.174;20.996;2022-10-16T04:55:08;100737.20;;;14.20
68588;BMP180;55560;52.174;20.996;2022-10-16T04:57:36;100739.80;;;14.20
68588;BMP180;55560;52.174;20.996;2022-10-16T05:00:05;100742.40;;;14.20
68588;BMP180;55560;52.174;20.996;2022-10-16T05:02:33;100745.60;;;14.20
68588;BMP180;55560;52.174;20.996;2022-10-16T05:05:01;100746.20;;;14.20
68588;BMP180;55560;52.174;20.996;2022-10-16T05:07:29;100745.20;;;14.20
68588;BMP180;55560;52.174;20.996;2022-10-16T05:09:57;100751.80;;;14.14
68588;BMP180;55560;52.174;20.996;2022-10-16T05:12:25;100751.60;;;14.10
68588;BMP180;55560;52.174;20.996;2022-10-16T05:14:53;100758.40;;;14.10
68588;BMP180;55560;52.174;20.996;2022-10-16T05:17:26;100761.00;;;14.08
68588;BMP180;55560;52.174;20.996;2022-10-16T05:19:54;100766.00;;;14.00
68588;BMP180;55560;52.174;20.996;2022-10-16T05:22:22;100765.20;;;14.00
68588;BMP180;55560;52.174;20.996;2022-10-16T05:24:50;100765.40;;;14.00
68588;BMP180;55560;52.174;20.996;2022-10-16T05:27:18;100766.00;;;14.00
68588;BMP180;55560;52.174;20.996;2022-10-16T05:29:48;100762.80;;;14.00
68588;BMP180;55560;52.174;20.996;2022-10-16T05:32:17;100771.20;;;14.00
68588;BMP180;55560;52.174;20.996;2022-10-16T05:34:45;100768.40;;;14.00
68588;BMP180;55560;52.174;20.996;2022-10-16T05:37:13;100767.00;;;14.00
68588;BMP180;55560;52.174;20.996;2022-10-16T05:39:41;100773.00;;;13.98
68588;BMP180;55560;52.174;20.996;2022-10-16T05:42:09;100766.60;;;13.94
68588;BMP180;55560;52.174;20.996;2022-10-16T05:44:37;100761.00;;;13.90
68588;BMP180;55560;52.174;20.996;2022-10-16T05:47:05;100763.00;;;13.90
68588;BMP180;55560;52.174;20.996;2022-10-16T05:49:33;100764.20;;;13.86
68588;BMP180;55560;52.174;20.996;2022-10-16T05:52:07;100770.20;;;13.80
68588;BMP180;55560;52.174;20.996;2022-10-16T05:54:35;100777.40;;;13.80
68588;BMP180;55560;52.174;20.996;2022-10-16T05:57:03;100771.40;;;13.80
68588;BMP180;55560;52.174;20.996;2022-10-16T05:59:33;100775.00;;;13.80
68588;BMP180;55560;52.174;20.996;2022-10-16T06:02:01;100780.80;;;13.80
68588;BMP180;55560;52.174;20.996;2022-10-16T06:04:29;100790.60;;;13.80
68588;BMP180;55560;52.174;20.996;2022-10-16T06:06:59;100801.60;;;13.80
68588;BMP180;55560;52.174;20.996;2022-10-16T06:09:30;100799.80;;;13.80
68588;BMP180;55560;52.174;20.996;2022-10-16T06:11:58;100797.00;;;13.80
68588;BMP180;55560;52.174;20.996;2022-10-16T06:14:26;100797.20;;;13.84
68588;BMP180;55560;52.174;20.996;2022-10-16T06:16:55;100804.00;;;13.90
68588;BMP180;55560;52.174;20.996;2022-10-16T06:19:22;100798.00;;;13.90
68588;BMP180;55560;52.174;20.996;2022-10-16T06:21:50;100799.40;;;13.90
68588;BMP180;55560;52.174;20.996;2022-10-16T06:24:18;100803.20;;;14.00
68588;BMP180;55560;52.174;20.996;2022-10-16T06:26:46;100805.20;;;14.00
68588;BMP180;55560;52.174;20.996;2022-10-16T06:29:14;100803.00;;;14.00
68588;BMP180;55560;52.174;20.996;2022-10-16T06:31:42;100810.40;;;14.02
68588;BMP180;55560;52.174;20.996;2022-10-16T06:34:10;100805.60;;;14.10
68588;BMP180;55560;52.174;20.996;2022-10-16T06:36:39;100804.00;;;14.10
68588;BMP180;55560;52.174;20.996;2022-10-16T06:39:07;100809.60;;;14.20
68588;BMP180;55560;52.174;20.996;2022-10-16T06:41:35;100812.00;;;14.20
68588;BMP180;55560;52.174;20.996;2022-10-16T06:44:13;100819.60;;;14.30
68588;BMP180;55560;52.174;20.996;2022-10-16T06:46:41;100818.40;;;14.30
68588;BMP180;55560;52.174;20.996;2022-10-16T06:49:09;100822.00;;;14.40
68588;BMP180;55560;52.174;20.996;2022-10-16T06:51:37;100824.40;;;14.40
68588;BMP180;55560;52.174;20.996;2022-10-16T06:54:10;100826.00;;;14.50
68588;BMP180;55560;52.174;20.996;2022-10-16T06:56:38;100834.20;;;14.60
68588;BMP180;55560;52.174;20.996;2022-10-16T06:59:06;100833.80;;;14.64
68588;BMP180;55560;52.174;20.996;2022-10-16T07:01:33;100830.40;;;14.78
68588;BMP180;55560;52.174;20.996;2022-10-16T07:04:02;100833.20;;;14.90
68588;BMP180;55560;52.174;20.996;2022-10-16T07:06:34;100832.00;;;15.00
68588;BMP180;55560;52.174;20.996;2022-10-16T07:09:04;100839.00;;;15.10
68588;BMP180;55560;52.174;20.996;2022-10-16T07:11:33;100849.20;;;15.20
68588;BMP180;55560;52.174;20.996;2022-10-16T07:14:01;100851.60;;;15.30
68588;BMP180;55560;52.174;20.996;2022-10-16T07:16:32;100852.60;;;15.30
68588;BMP180;55560;52.174;20.996;2022-10-16T07:19:01;100860.20;;;15.30
68588;BMP180;55560;52.174;20.996;2022-10-16T07:21:35;100857.60;;;15.30
68588;BMP180;55560;52.174;20.996;2022-10-16T07:24:09;100853.00;;;15.30
68588;BMP180;55560;52.174;20.996;2022-10-16T07:26:38;100856.80;;;15.30
68588;BMP180;55560;52.174;20.996;2022-10-16T07:29:13;100849.00;;;15.40
68588;BMP180;55560;52.174;20.996;2022-10-16T07:31:42;100845.80;;;15.46
68588;BMP180;55560;52.174;20.996;2022-10-16T07:34:15;100843.20;;;15.52
68588;BMP180;55560;52.174;20.996;2022-10-16T07:36:43;100839.40;;;15.60
68588;BMP180;55560;52.174;20.996;2022-10-16T07:39:12;100827.40;;;15.60
68588;BMP180;55560;52.174;20.996;2022-10-16T07:41:40;100820.80;;;15.70
68588;BMP180;55560;52.174;20.996;2022-10-16T07:44:08;100825.60;;;15.76
68588;BMP180;55560;52.174;20.996;2022-10-16T07:46:36;100826.20;;;16.00
68588;BMP180;55560;52.174;20.996;2022-10-16T07:49:04;100834.00;;;16.44
68588;BMP180;55560;52.174;20.996;2022-10-16T07:51:32;100842.60;;;16.92
68588;BMP180;55560;52.174;20.996;2022-10-16T07:54:00;100841.60;;;17.40
68588;BMP180;55560;52.174;20.996;2022-10-16T07:56:31;100842.40;;;17.94
68588;BMP180;55560;52.174;20.996;2022-10-16T07:59:00;100855.60;;;18.80
68588;BMP180;55560;52.174;20.996;2022-10-16T08:01:28;100852.60;;;19.52
68588;BMP180;55560;52.174;20.996;2022-10-16T08:03:56;100850.80;;;20.20
68588;BMP180;55560;52.174;20.996;2022-10-16T08:06:24;100848.00;;;20.78
68588;BMP180;55560;52.174;20.996;2022-10-16T08:08:56;100853.40;;;21.00
68588;BMP180;55560;52.174;20.996;2022-10-16T08:11:23;100859.20;;;20.80
68588;BMP180;55560;52.174;20.996;2022-10-16T08:13:51;100861.20;;;20.52
68588;BMP180;55560;52.174;20.996;2022-10-16T08:16:20;100865.40;;;20.16
68588;BMP180;55560;52.174;20.996;2022-10-16T08:18:48;100863.40;;;19.78
68588;BMP180;55560;52.174;20.996;2022-10-16T08:21:22;100862.60;;;19.62
68588;BMP180;55560;52.174;20.996;2022-10-16T08:23:52;100868.20;;;19.98
68588;BMP180;55560;52.174;20.996;2022-10-16T08:26:26;100871.00;;;20.40
68588;BMP180;55560;52.174;20.996;2022-10-16T08:28:55;100872.40;;;20.50
68588;BMP180;55560;52.174;20.996;2022-10-16T08:31:24;100873.80;;;20.80
68588;BMP180;55560;52.174;20.996;2022-10-16T08:33:54;100875.60;;;21.20
68588;BMP180;55560;52.174;20.996;2022-10-16T08:36:22;100873.60;;;21.38
68588;BMP180;55560;52.174;20.996;2022-10-16T08:38:51;100876.80;;;21.06
68588;BMP180;55560;52.174;20.996;2022-10-16T08:42:04;100872.40;;;20.60
68588;BMP180;55560;52.174;20.996;2022-10-16T08:44:57;100884.60;;;20.30
68588;BMP180;55560;52.174;20.996;2022-10-16T08:50:36;100889.80;;;19.70
68588;BMP180;55560;52.174;20.996;2022-10-16T08:53:06;100879.80;;;19.50
68588;BMP180;55560;52.174;20.996;2022-10-16T08:55:49;100882.20;;;19.30
68588;BMP180;55560;52.174;20.996;2022-10-16T08:58:26;100892.60;;;19.30
68588;BMP180;55560;52.174;20.996;2022-10-16T09:01:01;100898.40;;;19.20
68588;BMP180;55560;52.174;20.996;2022-10-16T09:06:46;100889.60;;;19.16
68588;BMP180;55560;52.174;20.996;2022-10-16T09:23:18;100901.00;;;18.90
68588;BMP180;55560;52.174;20.996;2022-10-16T09:25:49;100895.80;;;18.90
68588;BMP180;55560;52.174;20.996;2022-10-16T09:28:18;100885.80;;;18.98
68588;BMP180;55560;52.174;20.996;2022-10-16T09:30:47;100880.40;;;19.00
68588;BMP180;55560;52.174;20.996;2022-10-16T09:33:21;100883.20;;;19.00
68588;BMP180;55560;52.174;20.996;2022-10-16T09:35:53;100883.00;;;19.00
68588;BMP180;55560;52.174;20.996;2022-10-16T09:38:36;100889.20;;;19.10
68588;BMP180;55560;52.174;20.996;2022-10-16T09:41:21;100883.60;;;19.20
68588;BMP180;55560;52.174;20.996;2022-10-16T09:46:28;100888.60;;;19.30
68588;BMP180;55560;52.174;20.996;2022-10-16T09:49:03;100882.00;;;19.40
68588;BMP180;55560;52.174;20.996;2022-10-16T09:51:36;100885.20;;;19.42
68588;BMP180;55560;52.174;20.996;2022-10-16T09:56:37;100892.60;;;19.50
68588;BMP180;55560;52.174;20.996;2022-10-16T09:59:15;100889.40;;;19.50
68588;BMP180;55560;52.174;20.996;2022-10-16T10:01:52;100890.20;;;19.50
68588;BMP180;55560;52.174;20.996;2022-10-16T10:04:23;100885.20;;;19.60
68588;BMP180;55560;52.174;20.996;2022-10-16T10:06:54;100881.20;;;19.60
68588;BMP180;55560;52.174;20.996;2022-10-16T10:09:27;100880.20;;;19.70
68588;BMP180;55560;52.174;20.996;2022-10-16T10:12:04;100884.80;;;19.70
68588;BMP180;55560;52.174;20.996;2022-10-16T10:15:07;100891.20;;;19.70
68588;BMP180;55560;52.174;20.996;2022-10-16T10:17:55;100888.80;;;19.70
68588;BMP180;55560;52.174;20.996;2022-10-16T10:20:33;100894.20;;;19.80
68588;BMP180;55560;52.174;20.996;2022-10-16T10:23:26;100900.40;;;19.90
68588;BMP180;55560;52.174;20.996;2022-10-16T10:26:15;100893.40;;;20.00
68588;BMP180;55560;52.174;20.996;2022-10-16T10:32:30;100886.40;;;20.16
68588;BMP180;55560;52.174;20.996;2022-10-16T10:44:24;100883.20;;;20.70
68588;BMP180;55560;52.174;20.996;2022-10-16T10:47:01;100884.20;;;20.64
68588;BMP180;55560;52.174;20.996;2022-10-16T10:55:27;100887.20;;;20.50
68588;BMP180;55560;52.174;20.996;2022-10-16T10:58:15;100890.00;;;20.40
68588;BMP180;55560;52.174;20.996;2022-10-16T11:04:44;100885.80;;;20.60
68588;BMP180;55560;52.174;20.996;2022-10-16T11:07:18;100876.60;;;20.60
68588;BMP180;55560;52.174;20.996;2022-10-16T11:10:05;100866.80;;;20.70
68588;BMP180;55560;52.174;20.996;2022-10-16T11:12:44;100870.00;;;20.70
68588;BMP180;55560;52.174;20.996;2022-10-16T11:15:33;100867.20;;;20.60
68588;BMP180;55560;52.174;20.996;2022-10-16T11:18:21;100863.60;;;20.60
68588;BMP180;55560;52.174;20.996;2022-10-16T11:20:57;100869.60;;;20.54
68588;BMP180;55560;52.174;20.996;2022-10-16T11:23:49;100872.20;;;20.50
68588;BMP180;55560;52.174;20.996;2022-10-16T11:26:41;100867.80;;;20.50
68588;BMP180;55560;52.174;20.996;2022-10-16T11:29:17;100875.40;;;20.60
68588;BMP180;55560;52.174;20.996;2022-10-16T11:31:56;100876.60;;;20.60
68588;BMP180;55560;52.174;20.996;2022-10-16T11:34:44;100874.00;;;20.52
68588;BMP180;55560;52.174;20.996;2022-10-16T11:37:20;100880.20;;;20.60
68588;BMP180;55560;52.174;20.996;2022-10-16T11:39:50;100882.20;;;20.60
68588;BMP180;55560;52.174;20.996;2022-10-16T11:42:32;100885.40;;;20.60
68588;BMP180;55560;52.174;20.996;2022-10-16T11:45:26;100894.60;;;20.60
68588;BMP180;55560;52.174;20.996;2022-10-16T11:48:20;100894.20;;;20.70
68588;BMP180;55560;52.174;20.996;2022-10-16T11:51:00;100894.00;;;20.70
68588;BMP180;55560;52.174;20.996;2022-10-16T11:53:53;100884.60;;;20.80
68588;BMP180;55560;52.174;20.996;2022-10-16T11:56:24;100871.20;;;20.80
68588;BMP180;55560;52.174;20.996;2022-10-16T11:58:59;100864.60;;;20.90
68588;BMP180;55560;52.174;20.996;2022-10-16T12:01:42;100867.00;;;21.10
68588;BMP180;55560;52.174;20.996;2022-10-16T12:06:55;100872.40;;;21.30
68588;BMP180;55560;52.174;20.996;2022-10-16T12:09:32;100872.80;;;21.30
68588;BMP180;55560;52.174;20.996;2022-10-16T12:12:00;100867.40;;;21.30
68588;BMP180;55560;52.174;20.996;2022-10-16T12:25:36;100884.60;;;21.30
68588;BMP180;55560;52.174;20.996;2022-10-16T12:28:21;100889.40;;;21.24
68588;BMP180;55560;52.174;20.996;2022-10-16T12:31:05;100894.20;;;21.10
68588;BMP180;55560;52.174;20.996;2022-10-16T12:33:36;100894.40;;;21.10
68588;BMP180;55560;52.174;20.996;2022-10-16T12:36:14;100892.60;;;21.10
68588;BMP180;55560;52.174;20.996;2022-10-16T12:38:50;100889.40;;;21.10
68588;BMP180;55560;52.174;20.996;2022-10-16T12:41:33;100888.80;;;21.10
68588;BMP180;55560;52.174;20.996;2022-10-16T12:44:03;100892.20;;;21.10
68588;BMP180;55560;52.174;20.996;2022-10-16T12:49:28;100899.80;;;21.00
68588;BMP180;55560;52.174;20.996;2022-10-16T12:51:57;100898.80;;;21.00
68588;BMP180;55560;52.174;20.996;2022-10-16T12:54:31;100893.60;;;20.98
68588;BMP180;55560;52.174;20.996;2022-10-16T13:07:03;100905.20;;;21.20
68588;BMP180;55560;52.174;20.996;2022-10-16T13:10:06;100899.00;;;21.10
68588;BMP180;55560;52.174;20.996;2022-10-16T13:13:31;100890.40;;;21.10
68588;BMP180;55560;52.174;20.996;2022-10-16T13:16:11;100891.80;;;21.00
68588;BMP180;55560;52.174;20.996;2022-10-16T13:21:38;100900.60;;;20.80
68588;BMP180;55560;52.174;20.996;2022-10-16T13:24:23;100909.00;;;20.70
68588;BMP180;55560;52.174;20.996;2022-10-16T13:27:29;100911.40;;;20.60
68588;BMP180;55560;52.174;20.996;2022-10-16T13:30:20;100911.60;;;20.60
68588;BMP180;55560;52.174;20.996;2022-10-16T13:33:00;100914.20;;;20.50
68588;BMP180;55560;52.174;20.996;2022-10-16T13:35:32;100919.40;;;20.42
68588;BMP180;55560;52.174;20.996;2022-10-16T13:38:06;100924.20;;;20.40
68588;BMP180;55560;52.174;20.996;2022-10-16T13:41:17;100928.40;;;20.40
68588;BMP180;55560;52.174;20.996;2022-10-16T13:43:49;100931.20;;;20.34
68588;BMP180;55560;52.174;20.996;2022-10-16T13:46:24;100932.20;;;20.30
68588;BMP180;55560;52.174;20.996;2022-10-16T13:49:24;100933.20;;;20.30
68588;BMP180;55560;52.174;20.996;2022-10-16T13:51:58;100933.20;;;20.28
68588;BMP180;55560;52.174;20.996;2022-10-16T13:54:28;100929.20;;;20.20
68588;BMP180;55560;52.174;20.996;2022-10-16T13:57:05;100934.40;;;20.20
68588;BMP180;55560;52.174;20.996;2022-10-16T13:59:53;100940.60;;;20.20
68588;BMP180;55560;52.174;20.996;2022-10-16T14:02:27;100932.20;;;20.20
68588;BMP180;55560;52.174;20.996;2022-10-16T14:04:58;100925.60;;;20.20
68588;BMP180;55560;52.174;20.996;2022-10-16T14:07:34;100922.60;;;20.20
68588;BMP180;55560;52.174;20.996;2022-10-16T14:10:22;100925.20;;;20.20
68588;BMP180;55560;52.174;20.996;2022-10-16T14:13:05;100923.40;;;20.20
68588;BMP180;55560;52.174;20.996;2022-10-16T14:15:36;100925.20;;;20.20
68588;BMP180;55560;52.174;20.996;2022-10-16T14:18:04;100926.40;;;20.10
68588;BMP180;55560;52.174;20.996;2022-10-16T14:20:34;100924.00;;;20.10
68588;BMP180;55560;52.174;20.996;2022-10-16T14:23:22;100929.60;;;20.12
68588;BMP180;55560;52.174;20.996;2022-10-16T14:25:51;100937.40;;;20.10
68588;BMP180;55560;52.174;20.996;2022-10-16T14:28:23;100943.00;;;20.10
68588;BMP180;55560;52.174;20.996;2022-10-16T14:30:57;100944.20;;;20.10
68588;BMP180;55560;52.174;20.996;2022-10-16T14:36:13;100951.80;;;20.10
68588;BMP180;55560;52.174;20.996;2022-10-16T14:39:15;100951.60;;;20.10
68588;BMP180;55560;52.174;20.996;2022-10-16T14:41:44;100948.80;;;20.10
68588;BMP180;55560;52.174;20.996;2022-10-16T14:44:13;100953.60;;;20.06
68588;BMP180;55560;52.174;20.996;2022-10-16T14:46:43;100950.00;;;20.00
68588;BMP180;55560;52.174;20.996;2022-10-16T14:51:40;100952.80;;;20.00
68588;BMP180;55560;52.174;20.996;2022-10-16T14:54:18;100950.00;;;20.00
68588;BMP180;55560;52.174;20.996;2022-10-16T14:56:53;100949.40;;;20.00
68588;BMP180;55560;52.174;20.996;2022-10-16T14:59:32;100959.00;;;20.00
68588;BMP180;55560;52.174;20.996;2022-10-16T15:02:31;100953.80;;;19.90
68588;BMP180;55560;52.174;20.996;2022-10-16T15:05:22;100953.80;;;19.90
68588;BMP180;55560;52.174;20.996;2022-10-16T15:07:53;100957.80;;;19.90
68588;BMP180;55560;52.174;20.996;2022-10-16T15:10:24;100954.60;;;19.90
68588;BMP180;55560;52.174;20.996;2022-10-16T15:12:53;100954.00;;;19.90
68588;BMP180;55560;52.174;20.996;2022-10-16T15:18:04;100956.60;;;19.90
68588;BMP180;55560;52.174;20.996;2022-10-16T15:20:38;100967.00;;;19.80
68588;BMP180;55560;52.174;20.996;2022-10-16T15:23:26;100975.80;;;19.80
68588;BMP180;55560;52.174;20.996;2022-10-16T15:25:56;100972.60;;;19.80
68588;BMP180;55560;52.174;20.996;2022-10-16T15:28:24;100975.80;;;19.70
68588;BMP180;55560;52.174;20.996;2022-10-16T15:30:55;100976.80;;;19.70
68588;BMP180;55560;52.174;20.996;2022-10-16T15:33:27;100976.80;;;19.70
68588;BMP180;55560;52.174;20.996;2022-10-16T15:36:03;100976.80;;;19.60
68588;BMP180;55560;52.174;20.996;2022-10-16T15:38:34;100972.80;;;19.60
68588;BMP180;55560;52.174;20.996;2022-10-16T15:41:03;100973.00;;;19.60
68588;BMP180;55560;52.174;20.996;2022-10-16T15:43:31;100969.40;;;19.50
68588;BMP180;55560;52.174;20.996;2022-10-16T15:46:05;100979.20;;;19.50
68588;BMP180;55560;52.174;20.996;2022-10-16T15:48:35;100980.40;;;19.50
68588;BMP180;55560;52.174;20.996;2022-10-16T15:51:07;100979.60;;;19.40
68588;BMP180;55560;52.174;20.996;2022-10-16T15:53:36;100981.80;;;19.40
68588;BMP180;55560;52.174;20.996;2022-10-16T15:56:06;100985.40;;;19.32
68588;BMP180;55560;52.174;20.996;2022-10-16T15:58:34;100987.00;;;19.30
68588;BMP180;55560;52.174;20.996;2022-10-16T16:01:03;100988.60;;;19.30